Time;durP1;ratioP1;P1;durP2;ratioP2;P2;SDS_P1;SDS_P2;PMS_P1;PMS_P2;Temp;Humidity;BMP_temperature;BMP_pressure;BME280_temperature;BME280_humidity;BME280_pressure;Samples;Min_cycle;Max_cycle;Signal;HPM_P1;HPM_P2
2022/05/19 00:02:15;;;;;;;12.63;7.47;;;;;;;5.53;53.92;101637.54;3506056;80;21463;-76
2022/05/19 00:07:07;;;;;;;9.85;6.30;;;;;;;5.39;54.85;101638.51;3412460;82;21106;-76
2022/05/19 00:12:03;;;;;;;11.30;6.90;;;;;;;5.27;55.09;101629.30;3461404;80;21238;-75
2022/05/19 00:16:56;;;;;;;9.00;5.37;;;;;;;5.25;55.22;101634.78;3444948;80;20919;-76
2022/05/19 00:21:48;;;;;;;7.97;5.45;;;;;;;5.21;55.43;101630.28;3462196;81;20895;-76
2022/05/19 00:26:40;;;;;;;6.47;4.87;;;;;;;5.13;55.75;101633.74;3433884;81;20945;-76
2022/05/19 00:31:32;;;;;;;9.53;5.92;;;;;;;5.04;55.58;101629.35;3395106;81;21545;-76
2022/05/19 00:36:23;;;;;;;8.30;5.08;;;;;;;4.96;55.71;101632.81;3417963;80;20957;-77
2022/05/19 00:41:16;;;;;;;9.28;6.37;;;;;;;4.92;55.63;101641.19;3390478;81;21026;-76
2022/05/19 00:46:22;;;;;;;9.78;5.33;;;;;;;4.76;55.76;101637.30;3425213;82;22375;-76
2022/05/19 00:51:15;;;;;;;7.50;5.20;;;;;;;4.72;56.13;101628.89;3424257;82;20970;-76
2022/05/19 00:56:18;;;;;;;8.90;7.08;;;;;;;4.69;56.15;101634.77;3470715;82;21125;-76
2022/05/19 01:01:09;;;;;;;8.88;6.15;;;;;;;4.56;56.45;101633.20;3437751;82;21600;-76
2022/05/19 01:06:06;;;;;;;11.70;6.20;;;;;;;4.52;56.60;101623.52;3419184;81;20983;-77
2022/05/19 01:10:57;;;;;;;9.67;6.47;;;;;;;4.51;56.68;101626.91;3436738;82;21423;-76
2022/05/19 01:15:52;;;;;;;10.18;6.62;;;;;;;4.41;56.57;101617.29;3366971;82;21481;-76
2022/05/19 01:20:46;;;;;;;8.73;6.67;;;;;;;4.38;56.77;101634.72;3468517;81;21205;-76
2022/05/19 01:26:06;;;;;;;8.98;6.25;;;;;;;4.36;56.77;101637.24;3421664;82;21065;-76
2022/05/19 01:30:57;;;;;;;10.55;7.05;;;;;;;4.35;57.22;101635.45;3450747;82;21445;-76
2022/05/19 01:35:48;;;;;;;10.50;6.22;;;;;;;4.28;56.96;101642.75;3433543;81;20915;-76
2022/05/19 01:41:20;;;;;;;9.70;6.35;;;;;;;4.19;57.41;101642.70;3420089;82;21153;-77
2022/05/19 01:46:31;;;;;;;10.20;6.22;;;;;;;4.16;57.21;101646.78;3415037;82;21956;-76
2022/05/19 01:51:40;;;;;;;8.23;6.10;;;;;;;4.03;57.22;101638.75;3358822;83;21210;-76
2022/05/19 01:56:48;;;;;;;14.98;8.13;;;;;;;3.99;57.67;101642.84;3321515;83;20974;-76
2022/05/19 02:01:44;;;;;;;11.25;7.12;;;;;;;3.99;57.89;101641.95;3399481;83;20967;-77
2022/05/19 02:06:41;;;;;;;9.03;6.87;;;;;;;3.93;57.85;101642.86;3362923;83;20924;-76
2022/05/19 02:11:37;;;;;;;10.32;7.20;;;;;;;3.84;58.03;101638.47;3390170;83;21489;-76
2022/05/19 02:16:30;;;;;;;9.05;6.72;;;;;;;3.85;58.05;101640.26;3391173;83;21027;-76
2022/05/19 02:21:22;;;;;;;9.98;6.10;;;;;;;3.75;58.15;101649.98;3357212;83;20999;-76
2022/05/19 02:26:13;;;;;;;13.18;7.25;;;;;;;3.65;58.05;101643.82;3381779;83;21480;-76
2022/05/19 02:31:04;;;;;;;9.78;6.70;;;;;;;3.61;58.28;101640.55;3382979;83;20983;-76
2022/05/19 02:35:56;;;;;;;13.68;7.00;;;;;;;3.61;58.42;101648.27;3345718;82;21973;-76
2022/05/19 02:40:48;;;;;;;9.85;7.33;;;;;;;3.56;58.35;101645.81;3345780;83;21124;-76
2022/05/19 02:45:40;;;;;;;9.70;6.78;;;;;;;3.53;58.39;101643.08;3363875;83;21019;-76
2022/05/19 02:50:33;;;;;;;10.98;7.75;;;;;;;3.46;58.68;101643.51;3401375;82;22211;-76
2022/05/19 02:55:26;;;;;;;11.28;7.65;;;;;;;3.44;58.90;101636.58;3406627;81;21064;-76
2022/05/19 03:00:22;;;;;;;9.03;6.35;;;;;;;3.42;58.76;101631.74;3389910;81;21264;-76
2022/05/19 03:05:21;;;;;;;13.58;6.85;;;;;;;3.45;59.00;101633.59;3415785;81;21528;-76
2022/05/19 03:10:12;;;;;;;11.85;6.75;;;;;;;3.47;59.08;101634.98;3433023;81;20974;-76
2022/05/19 03:15:05;;;;;;;10.28;6.85;;;;;;;3.42;58.86;101634.31;3397668;81;20945;-76
2022/05/19 03:19:56;;;;;;;10.08;6.25;;;;;;;3.42;59.15;101631.74;3413468;81;20941;-76
2022/05/19 03:24:48;;;;;;;11.25;7.55;;;;;;;3.46;59.21;101630.66;3469524;81;21216;-76
2022/05/19 03:29:40;;;;;;;13.20;7.58;;;;;;;3.51;59.37;101636.55;3454434;80;20931;-76
2022/05/19 03:34:31;;;;;;;13.70;8.75;;;;;;;3.64;59.15;101636.89;3517587;80;21017;-76
2022/05/19 03:39:22;;;;;;;9.98;6.42;;;;;;;3.63;59.13;101633.81;3478691;80;20978;-76
2022/05/19 03:44:13;;;;;;;9.35;7.37;;;;;;;3.68;59.34;101640.13;3500602;80;20930;-77
2022/05/19 03:49:05;;;;;;;11.25;8.23;;;;;;;3.94;59.15;101636.52;3453832;80;21144;-76
2022/05/19 03:53:57;;;;;;;14.03;7.40;;;;;;;4.01;59.11;101639.95;3415740;81;20931;-76
2022/05/19 03:58:49;;;;;;;30.88;10.10;;;;;;;4.08;59.47;101637.34;3479599;81;20953;-76
2022/05/19 04:03:41;;;;;;;10.25;6.70;;;;;;;4.16;59.62;101632.21;3436799;80;20936;-76
2022/05/19 04:08:32;;;;;;;11.38;7.58;;;;;;;4.19;59.57;101640.13;3376163;81;21018;-76
2022/05/19 04:13:24;;;;;;;11.85;8.28;;;;;;;4.25;59.80;101638.30;3425934;81;21544;-76
2022/05/19 04:18:15;;;;;;;12.85;7.53;;;;;;;4.32;60.00;101630.12;3446145;81;20946;-76
2022/05/19 04:23:07;;;;;;;15.50;7.33;;;;;;;4.42;60.49;101628.06;3389471;81;21068;-76
2022/05/19 04:27:59;;;;;;;12.63;7.90;;;;;;;4.51;60.86;101626.03;3396670;81;20931;-76
2022/05/19 04:32:50;;;;;;;15.35;7.42;;;;;;;4.73;61.02;101622.95;3427234;81;21050;-77
2022/05/19 04:37:42;;;;;;;15.38;7.72;;;;;;;4.86;61.55;101624.50;3444336;81;21114;-76
2022/05/19 04:42:33;;;;;;;13.22;7.62;;;;;;;5.00;61.71;101627.84;3436758;81;20958;-76
2022/05/19 04:47:25;;;;;;;12.63;7.70;;;;;;;5.17;61.84;101630.92;3407623;81;20934;-76
2022/05/19 04:52:16;;;;;;;11.35;7.75;;;;;;;5.37;61.96;101623.36;3463601;81;20961;-76
2022/05/19 04:57:10;;;;;;;12.88;7.72;;;;;;;5.59;62.07;101622.36;3426268;81;21521;-76
2022/05/19 05:02:01;;;;;;;9.38;7.62;;;;;;;5.89;61.84;101616.59;3439490;81;21131;-77
2022/05/19 05:06:54;;;;;;;16.05;7.58;;;;;;;6.24;61.90;101617.89;3463912;81;20903;-76
2022/05/19 05:11:45;;;;;;;15.75;7.87;;;;;;;6.55;61.78;101609.06;3523220;80;21007;-76
2022/05/19 05:16:37;;;;;;;16.62;7.40;;;;;;;6.85;61.59;101607.91;3427804;81;21082;-76
2022/05/19 05:21:28;;;;;;;20.82;6.65;;;;;;;7.14;61.18;101612.23;3470361;80;21236;-76
2022/05/19 05:26:19;;;;;;;9.08;4.20;;;;;;;7.47;60.65;101615.83;3462542;80;20950;-77
2022/05/19 05:31:10;;;;;;;4.87;4.20;;;;;;;7.99;58.42;101606.44;3415452;81;20993;-76
2022/05/19 05:36:01;;;;;;;10.85;4.72;;;;;;;8.51;57.88;101600.31;3469439;80;20972;-77
2022/05/19 05:40:52;;;;;;;6.08;4.42;;;;;;;9.02;56.99;101607.05;3391454;81;20978;-77
2022/05/19 05:45:44;;;;;;;5.03;3.87;;;;;;;9.36;56.55;101594.02;3428225;81;20993;-77
2022/05/19 05:50:35;;;;;;;6.05;4.03;;;;;;;9.63;55.42;101593.22;3412133;82;21477;-77
2022/05/19 05:55:26;;;;;;;6.50;4.40;;;;;;;9.97;54.34;101595.25;3484384;80;21468;-77
2022/05/19 06:00:19;;;;;;;13.50;4.78;;;;;;;10.60;53.94;101598.59;3393265;81;20978;-77
2022/05/19 06:05:12;;;;;;;7.45;4.45;;;;;;;11.06;52.83;101612.12;3426627;81;21073;-77
2022/05/19 06:10:04;;;;;;;4.85;2.87;;;;;;;12.36;50.40;101609.95;3452688;80;20983;-77
2022/05/19 06:14:56;;;;;;;4.83;3.52;;;;;;;13.29;48.82;101600.67;3416925;81;20947;-77
2022/05/19 06:19:47;;;;;;;8.48;4.42;;;;;;;14.48;47.20;101599.70;3461323;80;21127;-78
2022/05/19 06:24:38;;;;;;;8.10;4.00;;;;;;;15.64;45.29;101608.61;3420022;82;20896;-78
2022/05/19 06:29:29;;;;;;;4.62;4.12;;;;;;;15.58;45.09;101605.94;3463467;80;20937;-78
2022/05/19 06:34:20;;;;;;;13.48;3.90;;;;;;;17.33;42.39;101601.07;3395336;80;20929;-78
2022/05/19 06:39:11;;;;;;;4.85;3.35;;;;;;;17.12;42.79;101591.80;3468169;81;20977;-78
2022/05/19 06:44:04;;;;;;;4.92;3.33;;;;;;;17.80;41.53;101588.89;3457937;81;21589;-78
2022/05/19 06:48:55;;;;;;;3.10;2.90;;;;;;;17.99;41.23;101583.66;3433190;80;20954;-78
2022/05/19 06:53:46;;;;;;;7.22;3.45;;;;;;;17.34;39.78;101589.67;3477940;80;21070;-78
2022/05/19 06:58:37;;;;;;;3.87;2.25;;;;;;;17.00;40.90;101588.67;3492568;80;20913;-78
2022/05/19 07:03:28;;;;;;;4.37;3.17;;;;;;;18.32;38.61;101585.86;3385981;80;21432;-78
2022/05/19 07:08:19;;;;;;;3.30;2.10;;;;;;;18.03;38.68;101590.25;3450124;81;20928;-78
2022/05/19 07:13:11;;;;;;;2.58;1.98;;;;;;;18.04;38.17;101585.86;3466366;80;20993;-79
2022/05/19 07:18:04;;;;;;;5.60;2.02;;;;;;;18.44;36.96;101571.36;3457878;80;20982;-81
2022/05/19 07:22:56;;;;;;;5.15;2.45;;;;;;;19.99;34.57;101567.08;3490071;80;21024;-81
2022/05/19 07:27:47;;;;;;;4.22;2.15;;;;;;;20.30;34.18;101551.84;3389414;81;21465;-80
2022/05/19 07:32:40;;;;;;;3.58;2.00;;;;;;;24.93;31.15;101533.94;3457488;80;21494;-81
2022/05/19 07:37:31;;;;;;;10.00;2.45;;;;;;;28.31;28.24;101538.90;3485947;81;21435;-82
2022/05/19 07:42:22;;;;;;;6.53;1.98;;;;;;;31.15;25.65;101553.80;3474157;80;20985;-88
2022/05/19 07:47:17;;;;;;;3.65;1.92;;;;;;;33.09;23.57;101535.86;3366275;81;20936;-88
2022/05/19 07:52:10;;;;;;;2.37;1.60;;;;;;;31.56;23.79;101535.81;3394997;82;21198;-85
2022/05/19 07:57:01;;;;;;;5.78;1.80;;;;;;;30.39;22.11;101528.40;3439492;81;20906;-87
2022/05/19 08:01:54;;;;;;;2.45;2.00;;;;;;;28.73;22.96;101535.73;3468861;81;20991;-81
2022/05/19 08:06:46;;;;;;;3.87;1.60;;;;;;;27.67;21.96;101536.72;3453604;81;20959;-83
2022/05/19 08:11:38;;;;;;;1.75;1.60;;;;;;;29.36;21.49;101528.73;3458056;81;20986;-82
2022/05/19 08:16:29;;;;;;;7.50;2.10;;;;;;;27.95;22.13;101520.87;3492995;81;21044;-83
2022/05/19 08:21:21;;;;;;;4.12;1.65;;;;;;;30.15;19.97;101512.23;3430251;81;21007;-84
2022/05/19 08:26:14;;;;;;;6.42;1.50;;;;;;;32.67;18.59;101507.09;3413720;82;20943;-82
2022/05/19 08:31:14;;;;;;;2.47;1.47;;;;;;;34.48;17.47;101506.63;3422007;81;21469;-82
2022/05/19 08:36:08;;;;;;;2.95;2.05;;;;;;;35.12;17.58;101505.63;3476636;80;20942;-85
2022/05/19 08:41:08;;;;;;;5.15;1.90;;;;;;;35.83;16.24;101511.14;3431220;80;20977;-82
2022/05/19 08:46:03;;;;;;;3.75;1.50;;;;;;;35.83;15.16;101516.55;3443236;80;21010;-80
2022/05/19 08:51:05;;;;;;;2.90;1.30;;;;;;;33.39;16.85;101501.55;3469313;81;20943;-81
2022/05/19 08:56:11;;;;;;;2.40;1.62;;;;;;;31.01;17.25;101510.75;3477498;80;21052;-85
2022/05/19 09:01:11;;;;;;;5.90;2.00;;;;;;;30.51;17.81;101515.27;3469031;80;20978;-81
2022/05/19 09:06:27;;;;;;;1.90;1.30;;;;;;;28.85;18.16;101505.25;3467397;80;21146;-82
2022/05/19 09:11:23;;;;;;;5.22;1.85;;;;;;;27.61;18.42;101498.23;3494418;80;21507;-83
2022/05/19 09:16:22;;;;;;;3.52;1.70;;;;;;;29.49;17.20;101490.15;3471085;80;20954;-82
2022/05/19 09:21:14;;;;;;;4.97;1.50;;;;;;;30.70;16.89;101493.17;3463151;80;21996;-86
2022/05/19 09:26:19;;;;;;;4.33;1.40;;;;;;;28.87;17.34;101491.31;3471685;81;21061;-81
2022/05/19 09:31:13;;;;;;;3.47;1.50;;;;;;;30.55;16.72;101477.95;3528022;80;22046;-80
2022/05/19 09:36:12;;;;;;;3.22;1.32;;;;;;;30.55;16.72;101477.95;3444004;81;21629;-85
2022/05/19 09:41:08;;;;;;;3.08;1.82;;;;;;;33.21;15.84;101466.39;3501129;81;20946;-83
2022/05/19 09:46:11;;;;;;;1.75;1.37;;;;;;;34.86;14.71;101477.84;3436172;80;20985;-80
2022/05/19 09:51:10;;;;;;;2.87;1.40;;;;;;;35.77;14.25;101462.91;3519474;80;20960;-84
2022/05/19 09:56:06;;;;;;;3.22;1.85;;;;;;;36.63;13.69;101461.45;3480269;80;21101;-80
2022/05/19 10:01:32;;;;;;;3.55;1.60;;;;;;;36.69;13.71;101447.46;3499523;80;20970;-80
2022/05/19 10:06:31;;;;;;;3.45;1.52;;;;;;;36.82;13.48;101444.09;3505828;80;21437;-79
2022/05/19 10:11:29;;;;;;;6.05;1.60;;;;;;;37.15;13.22;101435.48;3504965;80;21452;-81
2022/05/19 10:16:53;;;;;;;1.62;1.47;;;;;;;37.54;13.56;101427.67;3452543;80;20946;-80
2022/05/19 10:22:17;;;;;;;3.12;1.70;;;;;;;37.55;13.51;101426.66;3522176;80;21244;-83
2022/05/19 10:33:08;;;;;;;4.15;1.95;;;;;;;37.16;14.11;101410.11;3512926;80;21047;-82
2022/05/19 10:38:37;;;;;;;1.67;1.27;;;;;;;37.44;13.43;101414.53;3472037;80;21465;-83
2022/05/19 10:43:42;;;;;;;2.50;1.82;;;;;;;37.22;13.12;101406.02;3470235;81;20942;-85
2022/05/19 10:48:54;;;;;;;5.67;1.82;;;;;;;36.76;13.40;101399.91;3495443;80;21552;-84
2022/05/19 10:54:00;;;;;;;2.25;1.85;;;;;;;36.00;14.24;101387.54;3461947;82;21007;-79
2022/05/19 10:59:31;;;;;;;5.05;3.17;;;;;;;35.95;14.00;101376.25;3493488;80;20932;-79
2022/05/19 11:04:50;;;;;;;1.85;1.70;;;;;;;35.56;13.90;101358.13;3480788;80;20919;-85
2022/05/19 11:09:50;;;;;;;1.67;1.45;;;;;;;34.36;14.95;101364.50;3472515;80;20952;-84
2022/05/19 11:14:50;;;;;;;4.40;2.02;;;;;;;32.53;14.49;101369.81;3451062;81;21029;-83
2022/05/19 11:20:10;;;;;;;6.60;1.45;;;;;;;31.27;16.08;101354.82;3459715;81;21030;-82
2022/05/19 11:30:42;;;;;;;1.82;1.10;;;;;;;29.92;17.65;101349.44;3326147;84;20992;-82
2022/05/19 11:35:40;;;;;;;3.67;1.77;;;;;;;29.36;18.64;101323.85;3328537;84;21022;-82
2022/05/19 11:40:48;;;;;;;4.40;1.67;;;;;;;28.96;18.62;101323.21;3346881;84;21307;-85
2022/05/19 11:45:50;;;;;;;4.00;2.20;;;;;;;28.75;18.11;101315.78;3322398;84;21016;-80
2022/05/19 11:55:54;;;;;;;2.22;1.42;;;;;;;28.87;17.75;101295.96;3370368;83;21350;-79
2022/05/19 12:00:58;;;;;;;2.92;1.72;;;;;;;28.93;17.63;101293.44;3353722;83;20936;-83
2022/05/19 12:06:00;;;;;;;2.25;1.80;;;;;;;28.71;17.83;101290.99;3405672;80;21941;-84
2022/05/19 12:11:15;;;;;;;2.27;1.65;;;;;;;28.50;18.68;101285.72;3476069;80;20891;-79
2022/05/19 12:16:24;;;;;;;3.77;2.45;;;;;;;28.37;18.92;101280.59;3513653;81;20930;-81
2022/05/19 12:21:24;;;;;;;4.08;1.85;;;;;;;28.42;18.93;101275.00;3507412;81;20994;-79
2022/05/19 12:26:23;;;;;;;3.52;2.02;;;;;;;28.51;18.78;101275.43;3417821;81;21574;-82
2022/05/19 12:37:07;;;;;;;3.47;1.80;;;;;;;28.47;18.16;101264.50;3436565;81;20975;-81
2022/05/19 12:42:25;;;;;;;4.40;2.08;;;;;;;28.59;18.78;101252.81;3450697;81;21325;-80
2022/05/19 12:47:21;;;;;;;2.80;1.90;;;;;;;28.73;18.36;101257.00;3475289;81;21164;-81
2022/05/19 12:52:19;;;;;;;5.33;3.15;;;;;;;28.76;17.80;101243.47;3380709;83;20986;-81
2022/05/19 12:57:18;;;;;;;2.50;1.55;;;;;;;28.64;18.69;101233.39;3435732;81;20962;-81
2022/05/19 13:02:25;;;;;;;2.12;1.50;;;;;;;28.50;18.03;101228.22;3412203;81;20998;-81
2022/05/19 13:07:31;;;;;;;3.83;2.12;;;;;;;28.36;18.27;101221.84;3514584;81;20964;-78
2022/05/19 13:12:25;;;;;;;3.17;2.05;;;;;;;28.52;17.87;101224.98;3443639;81;21004;-80
2022/05/19 13:17:42;;;;;;;4.33;1.92;;;;;;;28.29;18.03;101221.27;3425571;81;21106;-78
2022/05/19 13:22:36;;;;;;;2.67;1.80;;;;;;;28.28;18.70;101212.39;3430680;82;22033;-83
2022/05/19 13:32:49;;;;;;;6.42;2.02;;;;;;;28.78;18.74;101205.45;3458849;81;21460;-82
2022/05/19 13:37:43;;;;;;;6.77;2.00;;;;;;;28.75;18.79;101188.70;3471684;81;21035;-84
2022/05/19 13:42:37;;;;;;;3.70;1.95;;;;;;;28.82;18.91;101188.29;3412894;81;21430;-82
2022/05/19 13:47:29;;;;;;;4.28;1.70;;;;;;;28.64;17.95;101183.91;3407486;81;21018;-77
2022/05/19 13:52:23;;;;;;;6.05;1.90;;;;;;;28.34;18.40;101172.44;3419996;81;20973;-80
2022/05/19 13:57:28;;;;;;;5.47;1.90;;;;;;;28.20;17.84;101168.26;3380226;81;20965;-83
2022/05/19 14:02:31;;;;;;;5.45;1.82;;;;;;;28.30;18.29;101164.19;3423170;81;21413;-80
2022/05/19 14:07:24;;;;;;;3.10;2.45;;;;;;;28.44;18.93;101167.03;3463801;81;21009;-81
2022/05/19 14:12:35;;;;;;;3.87;2.25;;;;;;;28.54;18.42;101162.58;3430910;81;21126;-80
2022/05/19 14:17:32;;;;;;;2.65;1.60;;;;;;;28.33;18.05;101160.00;3481736;80;21128;-82
2022/05/19 14:22:24;;;;;;;3.42;1.80;;;;;;;27.87;17.92;101150.25;3480648;81;20989;-81
2022/05/19 14:27:17;;;;;;;3.95;1.90;;;;;;;27.64;18.95;101151.36;3387683;82;20971;-81
2022/05/19 14:32:35;;;;;;;5.90;2.62;;;;;;;27.58;18.28;101142.69;3424955;81;20942;-80
2022/05/19 14:37:33;;;;;;;3.67;1.55;;;;;;;27.64;18.99;101140.20;3420957;82;21504;-80
2022/05/19 14:47:49;;;;;;;1.85;1.70;;;;;;;27.19;18.15;101133.38;3428243;81;21084;-80
2022/05/19 14:52:48;;;;;;;6.40;2.58;;;;;;;27.07;19.60;101132.61;3495824;80;20950;-80
2022/05/19 14:57:39;;;;;;;4.58;2.05;;;;;;;26.97;18.91;101129.47;3481210;81;21215;-80
2022/05/19 15:02:32;;;;;;;7.25;2.17;;;;;;;26.83;19.40;101114.11;3402659;82;21120;-79
2022/05/19 15:07:49;;;;;;;3.22;1.80;;;;;;;26.94;19.11;101111.81;3460402;82;20943;-80
2022/05/19 15:12:41;;;;;;;2.87;2.02;;;;;;;27.06;18.89;101106.84;3462832;80;21452;-79
2022/05/19 15:17:31;;;;;;;4.28;1.70;;;;;;;26.94;19.83;101103.81;3444878;80;22253;-74
2022/05/19 15:22:22;;;;;;;4.00;2.02;;;;;;;26.84;19.05;101095.82;3429329;83;21042;-80
2022/05/19 15:27:15;;;;;;;3.47;2.17;;;;;;;26.84;19.93;101089.15;3376009;81;41564;-80
2022/05/19 15:32:08;;;;;;;5.08;2.10;;;;;;;26.89;19.53;101076.47;3457791;80;20971;-79
2022/05/19 15:36:59;;;;;;;4.05;1.72;;;;;;;27.04;20.57;101082.04;3488777;80;20927;-77
2022/05/19 15:41:50;;;;;;;5.75;1.95;;;;;;;26.74;20.49;101073.16;3423178;81;20939;-79
2022/05/19 15:46:42;;;;;;;5.05;2.12;;;;;;;26.50;20.13;101063.95;3399343;83;20976;-79
2022/05/19 15:51:35;;;;;;;7.58;1.90;;;;;;;26.16;20.17;101058.76;3394653;81;20985;-79
2022/05/19 15:56:26;;;;;;;2.37;1.80;;;;;;;25.86;20.22;101052.89;3431466;82;21010;-78
2022/05/19 16:01:17;;;;;;;4.67;1.93;;;;;;;25.87;20.87;101048.84;3435470;81;21050;-79
2022/05/19 16:06:12;;;;;;;3.75;2.58;;;;;;;25.88;21.00;101039.93;3456800;81;21007;-79
2022/05/19 16:11:04;;;;;;;2.22;1.87;;;;;;;25.82;21.40;101034.84;3459676;81;20967;-79
2022/05/19 16:15:55;;;;;;;3.27;1.85;;;;;;;25.62;21.16;101029.48;3432522;81;21522;-79
2022/05/19 16:20:47;;;;;;;2.00;1.80;;;;;;;25.45;21.94;101021.73;3406142;81;20969;-79
2022/05/19 16:25:38;;;;;;;3.55;2.45;;;;;;;25.25;21.86;101029.63;3389424;81;20954;-79
2022/05/19 16:30:33;;;;;;;2.80;1.82;;;;;;;25.19;21.88;101012.55;3413462;81;21237;-78
2022/05/19 16:35:25;;;;;;;8.40;2.20;;;;;;;25.44;22.14;101018.66;3446071;81;22021;-78
2022/05/19 16:40:16;;;;;;;4.25;2.65;;;;;;;25.74;21.73;101015.67;3447230;81;21452;-79
2022/05/19 16:45:10;;;;;;;4.30;2.00;;;;;;;25.80;21.62;101011.41;3422436;81;21610;-79
2022/05/19 16:50:01;;;;;;;7.90;2.17;;;;;;;25.54;21.83;101000.97;3416130;81;20957;-79
2022/05/19 17:00:04;;;;;;;4.08;2.20;;;;;;;24.99;22.07;101006.21;3494110;80;20977;-79
2022/05/19 17:04:55;;;;;;;4.00;1.95;;;;;;;24.67;22.60;101002.12;3495938;80;21903;-73
2022/05/19 17:09:47;;;;;;;12.75;3.55;;;;;;;24.36;23.31;101012.05;3492516;80;20977;-79
2022/05/19 17:14:38;;;;;;;18.62;3.70;;;;;;;24.08;24.37;101008.62;3437567;80;20914;-78
2022/05/19 17:19:29;;;;;;;9.78;2.77;;;;;;;23.84;25.85;101012.54;3457479;80;20898;-78
2022/05/19 17:24:20;;;;;;;36.88;5.40;;;;;;;23.57;25.97;101004.97;3492786;80;21509;-78
2022/05/19 17:29:11;;;;;;;11.55;3.50;;;;;;;23.33;27.27;101001.34;3466502;80;21059;-78
2022/05/19 17:34:02;;;;;;;36.00;6.92;;;;;;;23.00;27.02;100986.83;3438099;80;21462;-78
2022/05/19 17:38:55;;;;;;;11.97;3.12;;;;;;;22.71;27.92;100990.36;3456375;80;20979;-78
2022/05/19 17:43:46;;;;;;;13.30;2.90;;;;;;;22.39;27.86;100983.75;3459764;80;20936;-78
2022/05/19 17:48:38;;;;;;;38.90;4.90;;;;;;;22.11;29.25;100992.87;3489284;80;20946;-78
2022/05/19 17:53:30;;;;;;;8.15;2.85;;;;;;;21.82;30.10;100985.66;3429965;81;21010;-78
2022/05/19 17:58:21;;;;;;;16.87;3.72;;;;;;;21.54;30.45;100973.60;3472481;80;20932;-78
2022/05/19 18:03:13;;;;;;;6.80;2.65;;;;;;;21.25;31.12;100970.70;3392302;80;21536;-78
2022/05/19 18:08:07;;;;;;;5.87;2.52;;;;;;;20.99;31.34;100966.47;3425260;80;21298;-78
2022/05/19 18:13:01;;;;;;;10.40;2.72;;;;;;;20.71;31.45;100965.73;3483765;80;20988;-80
2022/05/19 18:23:02;;;;;;;8.25;2.70;;;;;;;20.14;33.18;100972.13;3419343;80;21490;-78
2022/05/19 18:27:54;;;;;;;3.37;2.35;;;;;;;19.81;34.00;100983.23;3397703;81;20946;-78
2022/05/19 18:32:45;;;;;;;6.22;2.52;;;;;;;19.59;32.98;100974.78;3459193;80;20992;-79
2022/05/19 18:37:36;;;;;;;4.25;3.15;;;;;;;19.37;33.81;100972.05;3484470;80;21540;-79
2022/05/19 18:47:38;;;;;;;10.80;3.50;;;;;;;18.92;34.97;100974.01;3431522;81;20971;-79
2022/05/19 18:52:30;;;;;;;12.35;4.22;;;;;;;18.70;35.51;100969.89;3471905;80;20973;-78
2022/05/19 18:57:25;;;;;;;13.72;3.42;;;;;;;18.49;35.67;100982.41;3439358;80;21270;-78
2022/05/19 19:02:16;;;;;;;28.52;5.53;;;;;;;18.28;36.16;100973.02;3443080;80;20906;-78
2022/05/19 19:07:13;;;;;;;19.57;4.42;;;;;;;18.01;37.38;100972.83;3384918;82;21060;-78
2022/05/19 19:12:10;;;;;;;14.87;5.28;;;;;;;17.84;37.98;100979.55;3432669;81;20974;-78
2022/05/19 19:17:01;;;;;;;9.58;3.20;;;;;;;17.67;38.50;100971.78;3472537;80;22304;-78
2022/05/19 19:21:53;;;;;;;7.45;3.90;;;;;;;17.49;38.94;100976.33;3436837;80;20949;-78
2022/05/19 19:26:45;;;;;;;10.65;3.83;;;;;;;17.34;39.33;100975.11;3419275;81;20942;-78
2022/05/19 19:31:38;;;;;;;7.50;2.90;;;;;;;17.18;39.79;100970.39;3425287;80;21002;-78
2022/05/19 19:36:30;;;;;;;8.15;3.80;;;;;;;16.96;40.21;100965.72;3412240;81;21449;-78
2022/05/19 19:41:26;;;;;;;12.98;4.15;;;;;;;16.77;40.49;100963.13;3433905;81;21025;-78
2022/05/19 19:46:17;;;;;;;9.38;3.77;;;;;;;16.61;40.31;100962.77;3435972;81;21371;-78
2022/05/19 19:56:18;;;;;;;10.68;3.35;;;;;;;16.26;40.48;100955.91;3393879;81;21182;-77
2022/05/19 20:01:11;;;;;;;10.78;3.92;;;;;;;16.14;41.15;100963.80;3340542;81;20942;-78
2022/05/19 20:06:03;;;;;;;8.90;3.90;;;;;;;15.99;41.19;100958.16;3348151;81;20986;-78
2022/05/19 20:10:58;;;;;;;7.60;3.90;;;;;;;15.90;41.66;100955.10;3381650;81;21548;-78
2022/05/19 20:15:49;;;;;;;9.48;3.77;;;;;;;15.76;42.18;100951.63;3340157;83;20990;-78
2022/05/19 20:20:42;;;;;;;9.50;4.05;;;;;;;15.62;42.36;100955.06;3378611;83;21187;-78
2022/05/19 20:25:33;;;;;;;9.15;4.67;;;;;;;15.48;42.26;100950.70;3375301;83;20977;-78
2022/05/19 20:30:24;;;;;;;10.43;4.37;;;;;;;15.33;43.13;100947.65;3339289;83;21069;-78
2022/05/19 20:35:21;;;;;;;8.08;3.37;;;;;;;15.20;43.44;100946.31;3373416;83;21484;-78
2022/05/19 20:40:12;;;;;;;8.13;3.72;;;;;;;15.06;44.00;100950.66;3438111;81;25777;-80
2022/05/19 20:45:05;;;;;;;9.05;3.87;;;;;;;14.95;44.44;100943.19;3361850;81;21065;-78
2022/05/19 20:49:56;;;;;;;6.47;4.58;;;;;;;14.85;44.97;100938.37;3379662;82;21224;-78
2022/05/19 20:54:47;;;;;;;10.88;4.70;;;;;;;14.67;45.52;100935.27;3356141;82;20876;-78
2022/05/19 20:59:39;;;;;;;8.25;4.22;;;;;;;14.49;46.05;100935.59;3432181;81;21001;-78
2022/05/19 21:04:30;;;;;;;8.20;4.37;;;;;;;14.36;46.50;100923.34;3426617;81;20940;-78
2022/05/19 21:09:21;;;;;;;10.03;4.50;;;;;;;14.21;46.67;100920.64;3368074;82;21537;-78
2022/05/19 21:14:12;;;;;;;7.35;4.53;;;;;;;14.01;47.15;100918.78;3369642;81;20962;-78
2022/05/19 21:19:03;;;;;;;7.90;4.90;;;;;;;13.87;47.29;100918.69;3360831;82;21529;-78
2022/05/19 21:29:04;;;;;;;13.75;5.05;;;;;;;13.60;48.22;100912.84;3531546;80;20954;-78
2022/05/19 21:33:56;;;;;;;10.03;5.62;;;;;;;13.52;47.96;100902.75;3448580;80;22003;-78
2022/05/19 21:38:49;;;;;;;13.20;5.85;;;;;;;13.45;48.29;100898.34;3449325;80;20942;-78
2022/05/19 21:43:40;;;;;;;10.43;6.05;;;;;;;13.31;48.75;100900.86;3508269;80;21011;-78
2022/05/19 21:48:32;;;;;;;13.30;6.67;;;;;;;13.19;49.30;100885.05;3479719;80;20919;-78
2022/05/19 21:58:32;;;;;;;10.35;6.05;;;;;;;13.01;49.97;100876.62;3474403;81;21224;-78
2022/05/19 22:03:25;;;;;;;13.93;5.90;;;;;;;12.92;50.25;100876.09;3409703;82;22468;-78
2022/05/19 22:08:16;;;;;;;13.93;6.35;;;;;;;12.85;50.76;100871.67;3411423;80;20907;-78
2022/05/19 22:13:07;;;;;;;12.40;6.33;;;;;;;12.78;50.79;100873.34;3422043;81;21433;-78
2022/05/19 22:18:01;;;;;;;17.00;6.83;;;;;;;12.68;50.37;100874.09;3435379;80;20968;-78
2022/05/19 22:22:52;;;;;;;17.52;7.28;;;;;;;12.62;50.68;100872.73;3472012;80;21219;-78
2022/05/19 22:27:43;;;;;;;11.53;6.17;;;;;;;12.53;50.50;100867.84;3390943;81;21061;-78
2022/05/19 22:32:35;;;;;;;14.43;5.95;;;;;;;12.42;50.85;100868.16;3410514;80;21721;-78
2022/05/19 22:37:29;;;;;;;9.78;6.00;;;;;;;12.32;50.79;100864.98;3422546;80;20961;-78
2022/05/19 22:42:20;;;;;;;12.00;6.53;;;;;;;12.18;50.79;100872.22;3453995;81;21452;-78
2022/05/19 22:52:22;;;;;;;9.53;5.55;;;;;;;12.00;51.22;100866.34;3502476;81;20963;-78
2022/05/19 22:57:14;;;;;;;12.55;6.50;;;;;;;11.96;51.31;100866.27;3404926;80;20945;-78
2022/05/19 23:02:07;;;;;;;14.20;6.75;;;;;;;11.87;51.55;100863.50;3434428;81;21519;-79
2022/05/19 23:06:58;;;;;;;11.80;6.67;;;;;;;11.83;51.60;100856.94;3465195;80;20958;-78
2022/05/19 23:11:49;;;;;;;19.05;7.72;;;;;;;11.78;52.50;100853.83;3458469;80;21464;-78
2022/05/19 23:16:40;;;;;;;16.52;6.67;;;;;;;11.71;52.16;100846.34;3454545;81;20978;-78
2022/05/19 23:21:32;;;;;;;12.65;7.17;;;;;;;11.66;52.68;100849.34;3425805;80;20910;-78
2022/05/19 23:26:23;;;;;;;15.18;7.12;;;;;;;11.59;52.79;100831.88;3428267;81;21033;-78
2022/05/19 23:31:14;;;;;;;12.47;7.75;;;;;;;11.54;53.18;100823.98;3435862;80;21475;-78
2022/05/19 23:36:12;;;;;;;13.43;7.87;;;;;;;11.49;53.49;100823.47;3461723;80;21109;-79
2022/05/19 23:41:06;;;;;;;12.00;7.45;;;;;;;11.48;53.50;100823.87;3497185;80;21128;-78
2022/05/19 23:45:58;;;;;;;11.15;7.22;;;;;;;11.44;53.85;100817.73;3471612;80;21004;-79
2022/05/19 23:50:50;;;;;;;10.53;7.47;;;;;;;11.45;53.43;100816.90;3467033;80;20922;-78
2022/05/19 23:55:42;;;;;;;13.85;7.75;;;;;;;11.47;53.81;100816.92;3470860;80;22068;-79
